Etusivu
METAR-TAF:

METAR-TAF

Lentoasemat :

Sandane, Norja

Leveyspiiri: 61-50N, Pituuspiiri: 006-07E, korkeus merenpinnasta: 6 m

Tämänhetkinen sää

Tämä raportti tehtiin 37 minuuttia sitten, kello 11.20 UTC
Tuuli 5 kn pohjoisesta, vaihdellen lännen/luoteen ja koillisen välillä
Lämpötila 6°C
Kosteus 81%
Ilmanpaine 1007 hPa
Näkyvyys: 9000 m
Muutamia pilviä 1200 ft:n korkeudessa
Hajonneita pilviä 2700 ft:n korkeudessa
vesikuuroja

METAR: ENSD 231120Z 36005KT 300V050 9000 SHRA FEW012 BKN027 06/03 Q1007 RMK WIND 1138FT VRB05KT

Aika: 13:57 (11:57 UTC)


TAF: puuttuu

Säähavainnot ja -ennusteet yli 4000 lentoasemalta (METAR- ja TAF-raportit).

Käytössä olevat sääasemat on merkitty karttaan keltaisilla ja punaisilla pisteillä.

Aseta hiiri pisteen päälle nähdäksesi sääaseman nimen.

Klikkaa sitten nähdäksesi säähavainnot ja -ennusteet.

Kartan vaihtaminen: klikkaa mustalla rastilla varustettuja vihreitä pisteitä, niin voit zoomata sisään; viivalla varustettua vihreää pistettä, niin voit zoomata ulos tai vihreitä nuolia, niin pääset viereisille kartoille.


METAR-TAF: